createdAt,value
2019-01-28T00:00:23.023Z,30.10
2019-01-28T00:02:57.772Z,30.10
2019-01-28T00:05:32.973Z,30.10
2019-01-28T00:08:07.768Z,30.10
2019-01-28T00:10:45.159Z,30.10
2019-01-28T00:13:19.833Z,30.10
2019-01-28T00:16:12.315Z,30.10
2019-01-28T00:18:50.719Z,30.10
2019-01-28T00:21:25.189Z,30.10
2019-01-28T00:24:02.590Z,30.10
2019-01-28T00:26:57.013Z,30.10
2019-01-28T00:29:31.405Z,30.10
2019-01-28T00:32:06.297Z,30.10
2019-01-28T00:34:40.797Z,30.10
2019-01-28T00:37:16.162Z,30.10
2019-01-28T00:39:52.025Z,30.10
2019-01-28T00:42:27.107Z,30.10
2019-01-28T00:45:01.667Z,30.10
2019-01-28T00:47:36.495Z,30.10
2019-01-28T00:50:12.463Z,30.10
2019-01-28T00:52:47.694Z,30.10
2019-01-28T00:55:22.693Z,30.10
2019-01-28T00:57:57.668Z,30.10
2019-01-28T01:00:32.216Z,30.10
2019-01-28T01:03:07.082Z,30.20
2019-01-28T01:05:41.707Z,30.20
2019-01-28T01:08:16.718Z,30.20
2019-01-28T01:10:51.440Z,30.20
2019-01-28T01:13:26.320Z,30.20
2019-01-28T01:16:00.796Z,30.20
2019-01-28T01:18:35.742Z,30.30
2019-01-28T01:21:10.149Z,30.30
2019-01-28T01:23:44.797Z,30.40
2019-01-28T01:26:19.488Z,30.40
2019-01-28T01:28:54.323Z,30.40
2019-01-28T01:31:29.335Z,30.40
2019-01-28T01:34:04.019Z,30.40
2019-01-28T01:36:39.178Z,30.50
2019-01-28T01:39:13.809Z,30.50
2019-01-28T01:41:48.848Z,30.50
2019-01-28T01:44:23.765Z,30.60
2019-01-28T01:46:58.990Z,30.60
2019-01-28T01:49:33.675Z,30.60
2019-01-28T01:52:08.383Z,30.60
2019-01-28T01:54:44.025Z,30.60
2019-01-28T01:57:18.766Z,30.70
2019-01-28T01:59:53.772Z,30.70
2019-01-28T02:02:47.387Z,30.70
2019-01-28T02:05:22.229Z,30.70
2019-01-28T02:07:56.768Z,30.70
2019-01-28T02:10:31.043Z,30.80
2019-01-28T02:13:06.228Z,30.80
2019-01-28T02:15:40.934Z,30.90
2019-01-28T02:18:15.788Z,30.90
2019-01-28T02:20:50.758Z,30.90
2019-01-28T02:23:25.620Z,30.90
2019-01-28T02:26:00.213Z,30.90
2019-01-28T02:28:35.219Z,30.90
2019-01-28T02:31:09.860Z,31.00
2019-01-28T02:33:44.439Z,31.00
2019-01-28T02:36:19.751Z,31.00
2019-01-28T02:38:54.489Z,31.00
2019-01-28T02:41:29.218Z,31.00
2019-01-28T02:44:03.981Z,31.00
2019-01-28T02:46:38.736Z,31.00
2019-01-28T02:49:13.571Z,31.00
2019-01-28T02:51:48.964Z,31.10
2019-01-28T02:54:23.683Z,31.00
2019-01-28T02:56:58.392Z,31.10
2019-01-28T02:59:32.988Z,31.10
2019-01-28T03:02:08.378Z,31.10
2019-01-28T03:04:43.286Z,31.10
2019-01-28T03:07:17.722Z,31.10
2019-01-28T03:09:52.299Z,31.10
2019-01-28T03:12:27.095Z,31.20
2019-01-28T03:15:01.949Z,31.20
2019-01-28T03:17:36.622Z,31.20
2019-01-28T03:20:13.066Z,31.20
2019-01-28T03:22:48.099Z,31.30
2019-01-28T03:25:23.010Z,31.30
2019-01-28T03:27:57.927Z,31.30
2019-01-28T03:30:32.636Z,31.30
2019-01-28T03:33:07.495Z,31.40
2019-01-28T03:35:42.199Z,31.40
2019-01-28T03:38:16.782Z,31.40
2019-01-28T03:40:51.544Z,31.40
2019-01-28T03:43:26.439Z,31.40
2019-01-28T03:46:00.763Z,31.40
2019-01-28T03:48:35.532Z,31.40
2019-01-28T03:51:10.696Z,31.50
2019-01-28T03:54:04.273Z,31.50
2019-01-28T03:56:39.073Z,31.50
2019-01-28T03:59:13.956Z,31.50
2019-01-28T04:01:48.784Z,31.50
2019-01-28T04:04:23.472Z,31.60
2019-01-28T04:06:58.494Z,31.60
2019-01-28T04:09:32.699Z,31.60
2019-01-28T04:12:07.158Z,31.70
2019-01-28T04:14:41.688Z,31.70
2019-01-28T04:17:16.453Z,31.70
2019-01-28T04:19:51.204Z,31.70
2019-01-28T04:22:26.308Z,31.70
2019-01-28T04:25:00.637Z,31.80
2019-01-28T04:27:35.246Z,31.80
2019-01-28T04:30:13.634Z,31.80
2019-01-28T04:32:48.632Z,31.80
2019-01-28T04:35:23.674Z,31.80
2019-01-28T04:37:58.185Z,31.80
2019-01-28T04:40:33.431Z,31.90
2019-01-28T04:43:08.285Z,31.90
2019-01-28T04:45:42.883Z,31.90
2019-01-28T04:48:17.157Z,32.00
2019-01-28T04:50:51.962Z,32.00
2019-01-28T04:53:26.458Z,32.00
2019-01-28T04:56:01.074Z,32.00
2019-01-28T04:58:35.982Z,32.00
2019-01-28T05:01:11.107Z,32.00
2019-01-28T05:03:45.798Z,32.00
2019-01-28T05:06:22.548Z,32.10
2019-01-28T05:08:57.585Z,32.10
2019-01-28T05:11:31.951Z,32.10
2019-01-28T05:14:06.886Z,32.10
2019-01-28T05:16:41.645Z,32.10
2019-01-28T05:19:16.529Z,32.20
2019-01-28T05:21:51.395Z,32.20
2019-01-28T05:24:26.602Z,32.20
2019-01-28T05:27:01.809Z,32.30
2019-01-28T05:29:36.437Z,32.30
2019-01-28T05:32:11.071Z,32.30
2019-01-28T05:34:46.051Z,32.30
2019-01-28T05:37:20.737Z,32.40
2019-01-28T05:39:55.989Z,32.40
2019-01-28T05:42:30.782Z,32.40
2019-01-28T05:45:04.818Z,32.40
2019-01-28T05:47:39.347Z,32.50
2019-01-28T05:50:33.462Z,32.50
2019-01-28T05:53:27.352Z,32.50
2019-01-28T05:56:02.256Z,32.50
2019-01-28T05:58:38.972Z,32.60
2019-01-28T06:01:14.152Z,32.60
2019-01-28T06:03:48.710Z,32.60
2019-01-28T06:06:23.582Z,32.60
2019-01-28T06:08:58.336Z,32.60
2019-01-28T06:11:33.072Z,32.70
2019-01-28T06:14:07.625Z,32.70
2019-01-28T06:16:42.629Z,32.70
2019-01-28T06:19:17.542Z,32.70
2019-01-28T06:21:52.280Z,32.70
2019-01-28T06:24:27.033Z,32.80
2019-01-28T06:27:01.341Z,32.80
2019-01-28T06:29:35.636Z,32.80
2019-01-28T06:32:11.278Z,32.90
2019-01-28T06:34:45.867Z,32.90
2019-01-28T06:37:20.656Z,32.90
2019-01-28T06:39:55.421Z,32.90
2019-01-28T06:42:30.015Z,33.00
2019-01-28T06:45:04.678Z,33.00
2019-01-28T06:47:46.411Z,33.00
2019-01-28T06:50:16.037Z,33.00
2019-01-28T06:52:50.776Z,33.00
2019-01-28T06:55:25.454Z,33.10
2019-01-28T06:58:00.986Z,33.10
2019-01-28T07:00:37.156Z,33.10
2019-01-28T07:03:13.374Z,33.20
2019-01-28T07:05:48.184Z,33.20
2019-01-28T07:08:22.429Z,33.20
2019-01-28T07:10:57.329Z,33.20
2019-01-28T07:13:32.136Z,33.20
2019-01-28T07:16:07.063Z,33.20
2019-01-28T07:18:41.390Z,33.30
2019-01-28T07:21:16.142Z,33.30
2019-01-28T07:23:50.682Z,33.30
2019-01-28T07:26:25.265Z,33.30
2019-01-28T07:28:59.937Z,33.30
2019-01-28T07:31:36.246Z,33.40
2019-01-28T07:34:11.100Z,33.30
2019-01-28T07:36:46.007Z,33.40
2019-01-28T07:39:40.052Z,33.30
2019-01-28T07:42:14.486Z,33.40
2019-01-28T07:44:49.092Z,33.40
2019-01-28T07:47:23.689Z,33.40
2019-01-28T07:49:58.790Z,33.40
2019-01-28T07:52:33.014Z,33.40
2019-01-28T07:55:08.085Z,33.40
2019-01-28T07:57:42.289Z,33.50
2019-01-28T08:00:22.602Z,33.50
2019-01-28T08:02:57.416Z,33.50
2019-01-28T08:05:32.029Z,33.60
2019-01-28T08:08:06.736Z,33.60
2019-01-28T08:10:41.199Z,33.60
2019-01-28T08:13:16.947Z,33.60
2019-01-28T08:15:51.585Z,33.60
2019-01-28T08:18:26.914Z,33.60
2019-01-28T08:21:01.673Z,33.60
2019-01-28T08:23:36.605Z,33.70
2019-01-28T08:26:10.895Z,33.70
2019-01-28T08:28:45.746Z,33.70
2019-01-28T08:31:20.537Z,33.70
2019-01-28T08:33:55.541Z,33.70
2019-01-28T08:36:30.027Z,33.70
2019-01-28T08:39:05.409Z,33.70
2019-01-28T08:41:40.161Z,33.80
2019-01-28T08:44:16.099Z,33.80
2019-01-28T08:46:50.719Z,33.80
2019-01-28T08:49:26.094Z,33.80
2019-01-28T08:52:01.102Z,33.80
2019-01-28T08:54:35.906Z,33.90
2019-01-28T08:57:10.139Z,33.90
2019-01-28T08:59:44.678Z,33.90
2019-01-28T09:02:19.547Z,33.90
2019-01-28T09:04:54.036Z,33.90
2019-01-28T09:07:36.194Z,33.90
2019-01-28T09:10:12.008Z,33.90
2019-01-28T09:12:47.225Z,33.90
2019-01-28T09:15:24.231Z,33.90
2019-01-28T09:17:59.352Z,33.90
2019-01-28T09:20:34.397Z,33.90
2019-01-28T09:23:09.136Z,33.90
2019-01-28T09:25:43.913Z,34.00
2019-01-28T09:28:18.788Z,33.90
2019-01-28T09:30:53.602Z,34.00
2019-01-28T09:33:28.546Z,33.90
2019-01-28T09:36:03.069Z,34.00
2019-01-28T09:38:37.834Z,34.00
2019-01-28T09:41:21.171Z,34.00
2019-01-28T09:44:15.094Z,34.00
2019-01-28T09:46:50.216Z,34.00
2019-01-28T09:49:25.323Z,34.00
2019-01-28T09:52:02.933Z,34.00
2019-01-28T09:54:37.773Z,34.00
2019-01-28T09:57:30.040Z,34.00
2019-01-28T10:00:05.220Z,34.00
2019-01-28T10:02:39.774Z,34.00
2019-01-28T10:05:20.549Z,34.00
2019-01-28T10:08:14.417Z,34.00
2019-01-28T10:10:49.183Z,34.00
2019-01-28T10:13:26.279Z,34.00
2019-01-28T10:16:01.902Z,34.00
2019-01-28T10:18:41.780Z,34.00
2019-01-28T10:21:13.224Z,34.00
2019-01-28T10:23:48.088Z,34.00
2019-01-28T10:26:23.080Z,34.00
2019-01-28T10:28:57.409Z,34.00
2019-01-28T10:31:32.176Z,34.00
2019-01-28T10:34:07.322Z,34.00
2019-01-28T10:36:42.121Z,34.00
2019-01-28T10:39:17.577Z,34.00
2019-01-28T10:41:52.119Z,34.00
2019-01-28T10:44:26.720Z,34.00
2019-01-28T10:47:01.536Z,34.00
2019-01-28T10:49:36.104Z,34.00
2019-01-28T10:52:10.698Z,34.00
2019-01-28T10:54:45.564Z,34.00
2019-01-28T10:57:20.140Z,34.00
2019-01-28T10:59:55.203Z,34.00
2019-01-28T11:02:29.589Z,34.00
2019-01-28T11:05:04.288Z,34.00
2019-01-28T11:07:39.067Z,33.90
2019-01-28T11:10:17.523Z,34.00
2019-01-28T11:12:54.935Z,33.90
2019-01-28T11:15:31.989Z,34.00
2019-01-28T11:18:09.813Z,33.90
2019-01-28T11:20:44.372Z,33.80
2019-01-28T11:23:19.608Z,33.70
2019-01-28T11:25:54.544Z,33.60
2019-01-28T11:28:48.695Z,33.40
2019-01-28T11:31:23.498Z,33.20
2019-01-28T11:33:58.670Z,33.00
2019-01-28T11:36:33.657Z,32.70
2019-01-28T11:39:09.385Z,32.50
2019-01-28T11:41:44.332Z,32.30
2019-01-28T11:44:19.133Z,32.10
2019-01-28T11:46:54.306Z,31.90
2019-01-28T11:49:28.994Z,31.70
2019-01-28T11:52:04.003Z,31.60
2019-01-28T11:54:39.216Z,31.40
2019-01-28T11:57:31.761Z,31.30
2019-01-28T12:00:06.323Z,31.30
2019-01-28T12:02:41.273Z,31.20
2019-01-28T12:05:16.369Z,31.00
2019-01-28T12:07:51.177Z,30.90
2019-01-28T12:10:26.427Z,30.80
2019-01-28T12:13:01.215Z,30.80
2019-01-28T12:15:35.924Z,30.70
2019-01-28T12:18:10.760Z,30.70
2019-01-28T12:20:52.992Z,30.60
2019-01-28T12:23:22.021Z,30.60
2019-01-28T12:25:57.103Z,30.60
2019-01-28T12:28:32.136Z,30.60
2019-01-28T12:31:06.930Z,30.50
2019-01-28T12:33:45.306Z,30.50
2019-01-28T12:36:37.939Z,30.50
2019-01-28T12:39:14.090Z,30.50
2019-01-28T12:41:48.351Z,30.40
2019-01-28T12:44:42.210Z,30.40
2019-01-28T12:47:17.017Z,30.40
2019-01-28T12:49:52.635Z,30.40
2019-01-28T12:52:29.452Z,30.30
2019-01-28T12:55:04.779Z,30.30
2019-01-28T12:57:57.289Z,30.30
2019-01-28T13:00:39.628Z,30.30
2019-01-28T13:03:15.875Z,30.30
2019-01-28T13:05:50.855Z,30.30
2019-01-28T13:08:27.716Z,30.30
2019-01-28T13:11:02.125Z,30.20
2019-01-28T13:13:40.987Z,30.20
2019-01-28T13:16:12.845Z,30.30
2019-01-28T13:18:48.610Z,30.30
2019-01-28T13:21:23.092Z,30.40
2019-01-28T13:23:57.805Z,30.40
2019-01-28T13:26:32.038Z,30.50
2019-01-28T13:29:06.919Z,30.60
2019-01-28T13:31:41.383Z,30.70
2019-01-28T13:34:16.325Z,30.80
2019-01-28T13:36:51.173Z,30.90
2019-01-28T13:39:26.256Z,31.00
2019-01-28T13:42:01.083Z,31.10
2019-01-28T13:44:35.987Z,31.20
2019-01-28T13:47:11.514Z,31.20
2019-01-28T13:49:45.977Z,31.30
2019-01-28T13:52:21.165Z,31.40
2019-01-28T13:54:55.796Z,31.40
2019-01-28T13:57:30.401Z,31.50
2019-01-28T14:00:05.874Z,31.60
2019-01-28T14:02:40.997Z,31.60
2019-01-28T14:05:15.908Z,31.70
2019-01-28T14:07:50.264Z,31.80
2019-01-28T14:10:24.751Z,31.80
2019-01-28T14:12:59.690Z,31.80
2019-01-28T14:15:36.686Z,31.80
2019-01-28T14:18:12.754Z,31.90
2019-01-28T14:20:47.389Z,31.90
2019-01-28T14:23:22.098Z,32.00
2019-01-28T14:25:56.634Z,32.00
2019-01-28T14:28:31.200Z,32.00
2019-01-28T14:31:06.075Z,32.00
2019-01-28T14:33:40.531Z,32.00
2019-01-28T14:36:15.620Z,32.10
2019-01-28T14:38:50.135Z,32.10
2019-01-28T14:41:24.790Z,32.10
2019-01-28T14:44:00.136Z,32.10
2019-01-28T14:46:34.547Z,32.10
2019-01-28T14:49:09.683Z,32.10
2019-01-28T14:51:44.472Z,32.10
2019-01-28T14:54:19.455Z,32.10
2019-01-28T14:56:54.245Z,32.20
2019-01-28T14:59:28.651Z,32.10
2019-01-28T15:02:25.466Z,32.10
2019-01-28T15:05:00.102Z,32.10
2019-01-28T15:07:34.883Z,32.20
2019-01-28T15:10:10.030Z,32.20
2019-01-28T15:12:45.372Z,32.20
2019-01-28T15:15:21.886Z,32.20
2019-01-28T15:17:57.005Z,32.20
2019-01-28T15:20:31.811Z,32.20
2019-01-28T15:23:06.903Z,32.20
2019-01-28T15:25:41.441Z,32.20
2019-01-28T15:28:16.099Z,32.20
2019-01-28T15:30:51.473Z,32.20
2019-01-28T15:33:25.872Z,32.10
2019-01-28T15:36:00.285Z,32.20
2019-01-28T15:38:35.614Z,32.20
2019-01-28T15:41:10.379Z,32.20
2019-01-28T15:43:45.100Z,32.20
2019-01-28T15:46:20.270Z,32.10
2019-01-28T15:49:14.143Z,32.10
2019-01-28T15:51:48.900Z,32.20
2019-01-28T15:54:24.074Z,32.10
2019-01-28T15:56:58.763Z,32.10
2019-01-28T15:59:34.960Z,32.10
2019-01-28T16:02:09.529Z,32.10
2019-01-28T16:05:02.040Z,32.10
2019-01-28T16:07:37.093Z,32.10
2019-01-28T16:10:14.287Z,32.10
2019-01-28T16:12:48.849Z,32.10
2019-01-28T16:15:28.919Z,32.10
2019-01-28T16:18:22.647Z,32.10
2019-01-28T16:20:57.403Z,32.10
2019-01-28T16:23:33.166Z,32.10
2019-01-28T16:26:07.904Z,32.10
2019-01-28T16:28:42.409Z,32.00
2019-01-28T16:31:17.149Z,32.00
2019-01-28T16:33:51.899Z,32.00
2019-01-28T16:36:26.575Z,32.00
2019-01-28T16:39:00.964Z,32.00
2019-01-28T16:41:36.246Z,32.00
2019-01-28T16:44:10.981Z,32.00
2019-01-28T16:46:47.329Z,32.00
2019-01-28T16:49:22.097Z,32.00
2019-01-28T16:51:57.105Z,32.00
2019-01-28T16:54:31.765Z,32.00
2019-01-28T16:57:06.492Z,32.00
2019-01-28T17:00:00.056Z,32.00
2019-01-28T17:02:34.198Z,32.00
2019-01-28T17:05:09.693Z,31.90
2019-01-28T17:07:44.486Z,31.90
2019-01-28T17:10:21.518Z,32.00
2019-01-28T17:12:56.211Z,31.90
2019-01-28T17:15:31.833Z,31.90
2019-01-28T17:18:06.620Z,31.90
2019-01-28T17:20:41.364Z,31.80
2019-01-28T17:26:07.344Z,31.90
2019-01-28T17:28:44.490Z,31.90
2019-01-28T17:31:19.525Z,31.80
2019-01-28T17:33:54.155Z,31.80
2019-01-28T17:36:46.708Z,31.80
2019-01-28T17:39:22.308Z,31.80
2019-01-28T17:42:15.229Z,31.80
2019-01-28T17:44:49.992Z,31.80
2019-01-28T17:47:25.160Z,31.80
2019-01-28T17:50:01.316Z,31.80
2019-01-28T17:52:36.971Z,31.80
2019-01-28T17:55:12.085Z,31.80
2019-01-28T17:57:46.617Z,31.70
2019-01-28T18:00:30.906Z,31.80
2019-01-28T18:03:05.590Z,31.70
2019-01-28T18:05:40.312Z,31.80
2019-01-28T18:08:34.347Z,31.80
2019-01-28T18:11:08.906Z,31.80
2019-01-28T18:13:43.926Z,31.80
2019-01-28T18:16:18.444Z,31.80
2019-01-28T18:18:53.090Z,31.70
2019-01-28T18:21:27.379Z,31.70
2019-01-28T18:24:01.990Z,31.70
2019-01-28T18:26:36.557Z,31.70
2019-01-28T18:29:11.580Z,31.70
2019-01-28T18:31:46.519Z,31.70
2019-01-28T18:34:21.434Z,31.70
2019-01-28T18:36:55.965Z,31.70
2019-01-28T18:39:30.551Z,31.70
2019-01-28T18:42:05.561Z,31.70
2019-01-28T18:44:40.065Z,31.70
2019-01-28T18:47:15.465Z,31.70
2019-01-28T18:49:50.360Z,31.70
2019-01-28T18:52:44.413Z,31.70
2019-01-28T18:55:19.046Z,31.60
2019-01-28T18:57:53.945Z,31.60
2019-01-28T19:00:31.766Z,31.70
2019-01-28T19:03:06.501Z,31.60
2019-01-28T19:05:59.389Z,31.60
2019-01-28T19:08:55.248Z,31.60
2019-01-28T19:12:06.964Z,31.60
2019-01-28T19:14:59.822Z,31.60
2019-01-28T19:17:51.547Z,31.60
2019-01-28T19:20:31.537Z,31.60
2019-01-28T19:23:06.121Z,31.50
2019-01-28T19:25:40.635Z,31.50
2019-01-28T19:28:15.399Z,31.50
2019-01-28T19:30:50.225Z,31.50
2019-01-28T19:33:25.212Z,31.50
2019-01-28T19:35:59.816Z,31.50
2019-01-28T19:38:34.658Z,31.50
2019-01-28T19:41:09.403Z,31.50
2019-01-28T19:43:44.471Z,31.50
2019-01-28T19:46:19.087Z,31.50
2019-01-28T19:48:53.473Z,31.50
2019-01-28T19:51:28.658Z,31.50
2019-01-28T19:54:03.450Z,31.50
2019-01-28T19:56:40.340Z,31.40
2019-01-28T19:59:14.881Z,31.50
2019-01-28T20:01:50.137Z,31.40
2019-01-28T20:04:25.052Z,31.40
2019-01-28T20:07:00.195Z,31.40
2019-01-28T20:09:34.939Z,31.40
2019-01-28T20:12:09.915Z,31.40
2019-01-28T20:14:44.759Z,31.40
2019-01-28T20:17:19.906Z,31.40
2019-01-28T20:19:54.547Z,31.40
2019-01-28T20:22:36.217Z,31.40
2019-01-28T20:25:11.886Z,31.40
2019-01-28T20:27:47.143Z,31.40
2019-01-28T20:30:23.958Z,31.40
2019-01-28T20:32:59.002Z,31.40
2019-01-28T20:35:33.429Z,31.40
2019-01-28T20:38:15.359Z,31.40
2019-01-28T20:40:44.300Z,31.40
2019-01-28T20:43:23.845Z,31.30
2019-01-28T20:45:55.515Z,31.30
2019-01-28T20:48:30.102Z,31.30
2019-01-28T20:51:31.873Z,31.30
2019-01-28T20:54:00.510Z,31.30
2019-01-28T20:56:35.475Z,31.30
2019-01-28T20:59:10.698Z,31.30
2019-01-28T21:01:45.229Z,31.30
2019-01-28T21:04:20.139Z,31.30
2019-01-28T21:06:55.131Z,31.20
2019-01-28T21:09:30.220Z,31.20
2019-01-28T21:12:06.082Z,31.30
2019-01-28T21:14:40.510Z,31.20
2019-01-28T21:17:15.398Z,31.30
2019-01-28T21:19:50.276Z,31.20
2019-01-28T21:22:25.056Z,31.20
2019-01-28T21:24:59.841Z,31.20
2019-01-28T21:27:34.666Z,31.20
2019-01-28T21:30:10.763Z,31.20
2019-01-28T21:32:45.347Z,31.20
2019-01-28T21:35:21.676Z,31.20
2019-01-28T21:38:01.464Z,31.20
2019-01-28T21:40:36.457Z,31.20
2019-01-28T21:43:30.411Z,31.10
2019-01-28T21:46:05.290Z,31.10
2019-01-28T21:48:40.202Z,31.10
2019-01-28T21:51:15.042Z,31.10
2019-01-28T21:53:49.926Z,31.10
2019-01-28T21:56:25.255Z,31.10
2019-01-28T21:58:59.964Z,31.10
2019-01-28T22:01:35.402Z,31.10
2019-01-28T22:04:09.860Z,31.10
2019-01-28T22:06:44.530Z,31.10
2019-01-28T22:09:19.661Z,31.10
2019-01-28T22:11:54.180Z,31.00
2019-01-28T22:14:28.790Z,31.10
2019-01-28T22:17:04.483Z,31.00
2019-01-28T22:19:39.215Z,31.00
2019-01-28T22:22:14.427Z,31.00
2019-01-28T22:24:49.095Z,31.10
2019-01-28T22:27:23.907Z,31.00
2019-01-28T22:29:58.782Z,31.00
2019-01-28T22:32:34.283Z,31.00
2019-01-28T22:35:10.130Z,31.00
2019-01-28T22:37:45.006Z,31.00
2019-01-28T22:40:20.309Z,30.90
2019-01-28T22:42:55.097Z,30.90
2019-01-28T22:45:29.883Z,30.90
2019-01-28T22:48:04.758Z,30.90
2019-01-28T22:50:39.741Z,30.90
2019-01-28T22:53:14.543Z,30.90
2019-01-28T22:55:49.294Z,30.90
2019-01-28T22:58:24.640Z,30.90
2019-01-28T23:01:20.193Z,30.90
2019-01-28T23:03:55.104Z,30.90
2019-01-28T23:06:30.221Z,30.90
2019-01-28T23:09:06.875Z,30.90
2019-01-28T23:11:41.979Z,30.90
2019-01-28T23:14:16.935Z,30.80
2019-01-28T23:16:51.124Z,30.80
2019-01-28T23:19:26.089Z,30.80
2019-01-28T23:22:20.233Z,30.80
2019-01-28T23:24:54.899Z,30.80
2019-01-28T23:27:30.148Z,30.80
2019-01-28T23:30:04.945Z,30.70
2019-01-28T23:32:39.806Z,30.70
2019-01-28T23:35:14.060Z,30.80
2019-01-28T23:37:48.795Z,30.70
2019-01-28T23:40:23.336Z,30.70
2019-01-28T23:42:59.788Z,30.80
2019-01-28T23:45:34.566Z,30.70
2019-01-28T23:48:10.606Z,30.70
2019-01-28T23:50:45.219Z,30.70
2019-01-28T23:53:19.983Z,30.70
2019-01-28T23:55:54.908Z,30.70
2019-01-28T23:58:30.009Z,30.70
